sensor_id;sensor_type;location;lat;lon;timestamp;P1;durP1;ratioP1;P2;durP2;ratioP2
65971;SDS011;52726;48.852;9.152;2023-02-28T00:02:07;1.55;;;1.30;;
65971;SDS011;52726;48.852;9.152;2023-02-28T00:04:33;5.47;;;1.60;;
65971;SDS011;52726;48.852;9.152;2023-02-28T00:06:59;2.70;;;1.70;;
65971;SDS011;52726;48.852;9.152;2023-02-28T00:09:26;1.08;;;1.08;;
65971;SDS011;52726;48.852;9.152;2023-02-28T00:11:52;4.10;;;1.13;;
65971;SDS011;52726;48.852;9.152;2023-02-28T00:14:17;1.13;;;1.08;;
65971;SDS011;52726;48.852;9.152;2023-02-28T00:16:43;2.33;;;1.50;;
65971;SDS011;52726;48.852;9.152;2023-02-28T00:19:08;2.25;;;1.52;;
65971;SDS011;52726;48.852;9.152;2023-02-28T00:21:34;4.10;;;1.90;;
65971;SDS011;52726;48.852;9.152;2023-02-28T00:24:00;4.88;;;1.80;;
65971;SDS011;52726;48.852;9.152;2023-02-28T00:26:27;1.50;;;1.40;;
65971;SDS011;52726;48.852;9.152;2023-02-28T00:28:55;1.70;;;1.58;;
65971;SDS011;52726;48.852;9.152;2023-02-28T00:31:24;3.92;;;2.28;;
65971;SDS011;52726;48.852;9.152;2023-02-28T00:33:53;1.60;;;1.38;;
65971;SDS011;52726;48.852;9.152;2023-02-28T00:36:18;2.67;;;1.75;;
65971;SDS011;52726;48.852;9.152;2023-02-28T00:38:44;1.65;;;1.55;;
65971;SDS011;52726;48.852;9.152;2023-02-28T00:41:09;2.60;;;1.60;;
65971;SDS011;52726;48.852;9.152;2023-02-28T00:43:35;2.50;;;1.27;;
65971;SDS011;52726;48.852;9.152;2023-02-28T00:46:02;1.80;;;1.58;;
65971;SDS011;52726;48.852;9.152;2023-02-28T00:48:28;2.38;;;1.90;;
65971;SDS011;52726;48.852;9.152;2023-02-28T00:50:53;1.92;;;1.63;;
65971;SDS011;52726;48.852;9.152;2023-02-28T00:53:19;2.55;;;1.60;;
65971;SDS011;52726;48.852;9.152;2023-02-28T00:55:45;1.85;;;1.67;;
65971;SDS011;52726;48.852;9.152;2023-02-28T00:58:11;2.33;;;1.83;;
65971;SDS011;52726;48.852;9.152;2023-02-28T01:00:36;2.08;;;1.88;;
65971;SDS011;52726;48.852;9.152;2023-02-28T01:03:02;2.80;;;1.80;;
65971;SDS011;52726;48.852;9.152;2023-02-28T01:05:27;5.55;;;2.17;;
65971;SDS011;52726;48.852;9.152;2023-02-28T01:07:52;3.20;;;2.10;;
65971;SDS011;52726;48.852;9.152;2023-02-28T01:10:18;1.70;;;1.60;;
65971;SDS011;52726;48.852;9.152;2023-02-28T01:12:43;2.08;;;1.60;;
65971;SDS011;52726;48.852;9.152;2023-02-28T01:15:09;1.95;;;1.67;;
65971;SDS011;52726;48.852;9.152;2023-02-28T01:17:35;1.88;;;1.77;;
65971;SDS011;52726;48.852;9.152;2023-02-28T01:20:01;2.25;;;1.58;;
65971;SDS011;52726;48.852;9.152;2023-02-28T01:22:27;3.33;;;2.05;;
65971;SDS011;52726;48.852;9.152;2023-02-28T01:24:53;2.90;;;1.38;;
65971;SDS011;52726;48.852;9.152;2023-02-28T01:27:19;4.38;;;2.10;;
65971;SDS011;52726;48.852;9.152;2023-02-28T01:29:44;2.10;;;1.58;;
65971;SDS011;52726;48.852;9.152;2023-02-28T01:32:10;3.70;;;2.38;;
65971;SDS011;52726;48.852;9.152;2023-02-28T01:34:35;8.80;;;2.10;;
65971;SDS011;52726;48.852;9.152;2023-02-28T01:37:00;2.08;;;1.60;;
65971;SDS011;52726;48.852;9.152;2023-02-28T01:39:26;4.30;;;2.42;;
65971;SDS011;52726;48.852;9.152;2023-02-28T01:41:51;1.90;;;1.70;;
65971;SDS011;52726;48.852;9.152;2023-02-28T01:47:20;3.75;;;1.73;;
65971;SDS011;52726;48.852;9.152;2023-02-28T01:49:47;1.73;;;1.58;;
65971;SDS011;52726;48.852;9.152;2023-02-28T01:52:13;2.28;;;1.70;;
65971;SDS011;52726;48.852;9.152;2023-02-28T01:54:43;1.65;;;1.38;;
65971;SDS011;52726;48.852;9.152;2023-02-28T01:57:14;3.38;;;2.45;;
65971;SDS011;52726;48.852;9.152;2023-02-28T02:00:17;2.97;;;1.92;;
65971;SDS011;52726;48.852;9.152;2023-02-28T02:02:38;2.08;;;1.50;;
65971;SDS011;52726;48.852;9.152;2023-02-28T02:05:12;3.10;;;2.22;;
65971;SDS011;52726;48.852;9.152;2023-02-28T02:07:41;2.15;;;1.95;;
65971;SDS011;52726;48.852;9.152;2023-02-28T02:15:42;2.90;;;2.15;;
65971;SDS011;52726;48.852;9.152;2023-02-28T02:26:52;4.70;;;2.53;;
65971;SDS011;52726;48.852;9.152;2023-02-28T02:29:37;2.38;;;2.13;;
65971;SDS011;52726;48.852;9.152;2023-02-28T02:35:32;3.40;;;2.22;;
65971;SDS011;52726;48.852;9.152;2023-02-28T02:40:46;2.92;;;1.60;;
65971;SDS011;52726;48.852;9.152;2023-02-28T02:43:19;2.15;;;1.92;;
65971;SDS011;52726;48.852;9.152;2023-02-28T02:45:58;3.03;;;2.20;;
65971;SDS011;52726;48.852;9.152;2023-02-28T02:48:27;3.63;;;2.65;;
65971;SDS011;52726;48.852;9.152;2023-02-28T02:50:57;1.42;;;0.98;;
65971;SDS011;52726;48.852;9.152;2023-02-28T02:53:27;1.67;;;1.58;;
65971;SDS011;52726;48.852;9.152;2023-02-28T02:55:57;2.25;;;1.85;;
65971;SDS011;52726;48.852;9.152;2023-02-28T02:58:26;1.95;;;1.85;;
65971;SDS011;52726;48.852;9.152;2023-02-28T03:00:57;1.83;;;1.60;;
65971;SDS011;52726;48.852;9.152;2023-02-28T03:03:25;3.03;;;2.05;;
65971;SDS011;52726;48.852;9.152;2023-02-28T03:05:57;2.25;;;2.08;;
65971;SDS011;52726;48.852;9.152;2023-02-28T03:08:23;1.90;;;1.80;;
65971;SDS011;52726;48.852;9.152;2023-02-28T03:10:50;3.70;;;1.67;;
65971;SDS011;52726;48.852;9.152;2023-02-28T03:22:11;4.03;;;2.67;;
65971;SDS011;52726;48.852;9.152;2023-02-28T03:35:39;4.68;;;1.35;;
65971;SDS011;52726;48.852;9.152;2023-02-28T03:41:01;3.17;;;2.03;;
65971;SDS011;52726;48.852;9.152;2023-02-28T03:43:33;2.92;;;2.03;;
65971;SDS011;52726;48.852;9.152;2023-02-28T03:46:01;4.88;;;1.90;;
65971;SDS011;52726;48.852;9.152;2023-02-28T03:48:40;2.65;;;2.42;;
65971;SDS011;52726;48.852;9.152;2023-02-28T03:51:17;2.15;;;1.67;;
65971;SDS011;52726;48.852;9.152;2023-02-28T03:53:53;3.88;;;2.38;;
65971;SDS011;52726;48.852;9.152;2023-02-28T03:59:14;3.38;;;2.35;;
65971;SDS011;52726;48.852;9.152;2023-02-28T04:01:44;6.18;;;2.00;;
65971;SDS011;52726;48.852;9.152;2023-02-28T04:04:12;3.95;;;2.75;;
65971;SDS011;52726;48.852;9.152;2023-02-28T04:06:39;2.97;;;2.53;;
65971;SDS011;52726;48.852;9.152;2023-02-28T04:09:05;3.20;;;2.15;;
65971;SDS011;52726;48.852;9.152;2023-02-28T04:13:57;3.35;;;2.58;;
65971;SDS011;52726;48.852;9.152;2023-02-28T04:16:23;2.75;;;2.08;;
65971;SDS011;52726;48.852;9.152;2023-02-28T04:18:48;2.20;;;2.00;;
65971;SDS011;52726;48.852;9.152;2023-02-28T04:21:13;2.65;;;2.15;;
65971;SDS011;52726;48.852;9.152;2023-02-28T04:23:39;3.78;;;2.25;;
65971;SDS011;52726;48.852;9.152;2023-02-28T04:26:04;2.95;;;2.17;;
65971;SDS011;52726;48.852;9.152;2023-02-28T04:28:31;4.32;;;2.70;;
65971;SDS011;52726;48.852;9.152;2023-02-28T04:31:01;2.53;;;2.15;;
65971;SDS011;52726;48.852;9.152;2023-02-28T04:36:02;1.88;;;1.63;;
65971;SDS011;52726;48.852;9.152;2023-02-28T04:38:33;4.95;;;2.83;;
65971;SDS011;52726;48.852;9.152;2023-02-28T04:41:02;4.63;;;2.63;;
65971;SDS011;52726;48.852;9.152;2023-02-28T04:43:28;2.53;;;1.88;;
65971;SDS011;52726;48.852;9.152;2023-02-28T04:45:58;2.95;;;2.20;;
65971;SDS011;52726;48.852;9.152;2023-02-28T04:48:28;3.58;;;2.10;;
65971;SDS011;52726;48.852;9.152;2023-02-28T04:50:54;3.30;;;2.30;;
65971;SDS011;52726;48.852;9.152;2023-02-28T04:53:20;6.18;;;2.28;;
65971;SDS011;52726;48.852;9.152;2023-02-28T04:55:45;3.85;;;2.25;;
65971;SDS011;52726;48.852;9.152;2023-02-28T04:58:11;2.63;;;2.05;;
65971;SDS011;52726;48.852;9.152;2023-02-28T05:00:39;4.15;;;2.47;;
65971;SDS011;52726;48.852;9.152;2023-02-28T05:03:04;2.45;;;2.25;;
65971;SDS011;52726;48.852;9.152;2023-02-28T05:05:30;2.25;;;2.05;;
65971;SDS011;52726;48.852;9.152;2023-02-28T05:07:55;3.38;;;2.47;;
65971;SDS011;52726;48.852;9.152;2023-02-28T05:10:21;8.77;;;2.50;;
65971;SDS011;52726;48.852;9.152;2023-02-28T05:12:47;2.70;;;1.83;;
65971;SDS011;52726;48.852;9.152;2023-02-28T05:15:13;5.35;;;1.67;;
65971;SDS011;52726;48.852;9.152;2023-02-28T05:17:40;2.92;;;2.20;;
65971;SDS011;52726;48.852;9.152;2023-02-28T05:20:06;4.05;;;2.67;;
65971;SDS011;52726;48.852;9.152;2023-02-28T05:22:32;1.90;;;1.75;;
65971;SDS011;52726;48.852;9.152;2023-02-28T05:24:57;2.85;;;2.05;;
65971;SDS011;52726;48.852;9.152;2023-02-28T05:27:23;4.28;;;2.50;;
65971;SDS011;52726;48.852;9.152;2023-02-28T05:29:48;6.68;;;2.63;;
65971;SDS011;52726;48.852;9.152;2023-02-28T05:32:13;4.93;;;2.88;;
65971;SDS011;52726;48.852;9.152;2023-02-28T05:34:39;8.32;;;2.67;;
65971;SDS011;52726;48.852;9.152;2023-02-28T05:37:05;2.42;;;2.22;;
65971;SDS011;52726;48.852;9.152;2023-02-28T05:39:31;5.28;;;3.15;;
65971;SDS011;52726;48.852;9.152;2023-02-28T05:41:57;2.38;;;1.92;;
65971;SDS011;52726;48.852;9.152;2023-02-28T05:44:22;2.45;;;2.25;;
65971;SDS011;52726;48.852;9.152;2023-02-28T05:46:47;3.67;;;2.85;;
65971;SDS011;52726;48.852;9.152;2023-02-28T05:49:13;4.82;;;3.00;;
65971;SDS011;52726;48.852;9.152;2023-02-28T05:51:38;5.18;;;2.72;;
65971;SDS011;52726;48.852;9.152;2023-02-28T05:54:04;5.20;;;1.80;;
65971;SDS011;52726;48.852;9.152;2023-02-28T05:56:30;6.60;;;3.22;;
65971;SDS011;52726;48.852;9.152;2023-02-28T05:58:56;5.25;;;3.40;;
65971;SDS011;52726;48.852;9.152;2023-02-28T06:03:56;11.43;;;3.33;;
65971;SDS011;52726;48.852;9.152;2023-02-28T06:06:23;5.22;;;3.80;;
65971;SDS011;52726;48.852;9.152;2023-02-28T06:08:48;5.07;;;3.25;;
65971;SDS011;52726;48.852;9.152;2023-02-28T06:11:14;4.68;;;2.67;;
65971;SDS011;52726;48.852;9.152;2023-02-28T06:13:39;3.90;;;2.42;;
65971;SDS011;52726;48.852;9.152;2023-02-28T06:16:05;4.78;;;2.58;;
65971;SDS011;52726;48.852;9.152;2023-02-28T06:18:30;6.45;;;3.28;;
65971;SDS011;52726;48.852;9.152;2023-02-28T06:20:56;3.75;;;2.28;;
65971;SDS011;52726;48.852;9.152;2023-02-28T06:23:21;5.65;;;2.80;;
65971;SDS011;52726;48.852;9.152;2023-02-28T06:25:47;4.18;;;2.55;;
65971;SDS011;52726;48.852;9.152;2023-02-28T06:28:14;7.68;;;2.58;;
65971;SDS011;52726;48.852;9.152;2023-02-28T06:30:40;4.05;;;2.67;;
65971;SDS011;52726;48.852;9.152;2023-02-28T06:33:05;3.05;;;2.42;;
65971;SDS011;52726;48.852;9.152;2023-02-28T06:35:31;8.60;;;3.13;;
65971;SDS011;52726;48.852;9.152;2023-02-28T06:37:56;3.92;;;2.40;;
65971;SDS011;52726;48.852;9.152;2023-02-28T06:40:22;6.43;;;2.85;;
65971;SDS011;52726;48.852;9.152;2023-02-28T06:42:47;9.82;;;3.20;;
65971;SDS011;52726;48.852;9.152;2023-02-28T06:45:13;3.50;;;2.58;;
65971;SDS011;52726;48.852;9.152;2023-02-28T06:47:39;4.38;;;2.58;;
65971;SDS011;52726;48.852;9.152;2023-02-28T06:50:06;4.00;;;2.30;;
65971;SDS011;52726;48.852;9.152;2023-02-28T06:52:36;1.85;;;1.63;;
65971;SDS011;52726;48.852;9.152;2023-02-28T06:55:02;3.42;;;2.08;;
65971;SDS011;52726;48.852;9.152;2023-02-28T06:57:32;1.58;;;1.48;;
65971;SDS011;52726;48.852;9.152;2023-02-28T06:59:59;3.17;;;2.42;;
65971;SDS011;52726;48.852;9.152;2023-02-28T07:02:26;2.78;;;2.58;;
65971;SDS011;52726;48.852;9.152;2023-02-28T07:04:52;4.32;;;2.78;;
65971;SDS011;52726;48.852;9.152;2023-02-28T07:07:17;4.13;;;2.70;;
65971;SDS011;52726;48.852;9.152;2023-02-28T07:09:43;8.43;;;2.67;;
65971;SDS011;52726;48.852;9.152;2023-02-28T07:12:08;5.35;;;3.22;;
65971;SDS011;52726;48.852;9.152;2023-02-28T07:14:36;11.73;;;2.72;;
65971;SDS011;52726;48.852;9.152;2023-02-28T07:17:02;5.68;;;3.38;;
65971;SDS011;52726;48.852;9.152;2023-02-28T07:19:27;3.88;;;2.40;;
65971;SDS011;52726;48.852;9.152;2023-02-28T07:21:53;4.53;;;2.95;;
65971;SDS011;52726;48.852;9.152;2023-02-28T07:24:18;3.30;;;2.20;;
65971;SDS011;52726;48.852;9.152;2023-02-28T07:26:43;2.85;;;2.15;;
65971;SDS011;52726;48.852;9.152;2023-02-28T07:29:09;8.82;;;3.17;;
65971;SDS011;52726;48.852;9.152;2023-02-28T07:31:34;9.13;;;2.85;;
65971;SDS011;52726;48.852;9.152;2023-02-28T07:34:00;5.13;;;3.78;;
65971;SDS011;52726;48.852;9.152;2023-02-28T07:36:25;3.67;;;2.65;;
65971;SDS011;52726;48.852;9.152;2023-02-28T07:38:51;7.13;;;2.75;;
65971;SDS011;52726;48.852;9.152;2023-02-28T07:41:17;3.92;;;3.20;;
65971;SDS011;52726;48.852;9.152;2023-02-28T07:43:44;6.93;;;2.67;;
65971;SDS011;52726;48.852;9.152;2023-02-28T07:46:11;8.93;;;3.28;;
65971;SDS011;52726;48.852;9.152;2023-02-28T07:48:39;5.18;;;3.00;;
65971;SDS011;52726;48.852;9.152;2023-02-28T07:51:05;5.63;;;3.53;;
65971;SDS011;52726;48.852;9.152;2023-02-28T07:53:31;6.22;;;4.10;;
65971;SDS011;52726;48.852;9.152;2023-02-28T07:55:57;4.97;;;2.63;;
65971;SDS011;52726;48.852;9.152;2023-02-28T07:58:24;5.05;;;3.15;;
65971;SDS011;52726;48.852;9.152;2023-02-28T08:00:50;3.92;;;2.85;;
65971;SDS011;52726;48.852;9.152;2023-02-28T08:03:16;4.68;;;2.97;;
65971;SDS011;52726;48.852;9.152;2023-02-28T08:05:43;12.15;;;3.30;;
65971;SDS011;52726;48.852;9.152;2023-02-28T08:08:08;4.90;;;3.03;;
65971;SDS011;52726;48.852;9.152;2023-02-28T08:10:34;4.50;;;3.20;;
65971;SDS011;52726;48.852;9.152;2023-02-28T08:13:00;2.45;;;2.25;;
65971;SDS011;52726;48.852;9.152;2023-02-28T08:15:25;6.18;;;3.05;;
65971;SDS011;52726;48.852;9.152;2023-02-28T08:17:51;5.20;;;3.05;;
65971;SDS011;52726;48.852;9.152;2023-02-28T08:20:16;4.80;;;3.15;;
65971;SDS011;52726;48.852;9.152;2023-02-28T08:22:42;11.02;;;3.05;;
65971;SDS011;52726;48.852;9.152;2023-02-28T08:25:07;3.08;;;1.92;;
65971;SDS011;52726;48.852;9.152;2023-02-28T08:27:33;5.93;;;3.30;;
65971;SDS011;52726;48.852;9.152;2023-02-28T08:29:59;1.75;;;1.52;;
65971;SDS011;52726;48.852;9.152;2023-02-28T08:32:24;5.30;;;3.15;;
65971;SDS011;52726;48.852;9.152;2023-02-28T08:34:50;7.95;;;3.15;;
65971;SDS011;52726;48.852;9.152;2023-02-28T08:37:16;6.35;;;3.50;;
65971;SDS011;52726;48.852;9.152;2023-02-28T08:39:41;5.85;;;3.53;;
65971;SDS011;52726;48.852;9.152;2023-02-28T08:42:07;9.20;;;3.08;;
65971;SDS011;52726;48.852;9.152;2023-02-28T08:44:32;4.90;;;3.38;;
65971;SDS011;52726;48.852;9.152;2023-02-28T08:46:57;5.82;;;3.67;;
65971;SDS011;52726;48.852;9.152;2023-02-28T08:49:23;4.78;;;3.17;;
65971;SDS011;52726;48.852;9.152;2023-02-28T08:51:48;8.80;;;3.80;;
65971;SDS011;52726;48.852;9.152;2023-02-28T08:54:13;3.92;;;3.03;;
65971;SDS011;52726;48.852;9.152;2023-02-28T08:56:44;6.00;;;3.28;;
65971;SDS011;52726;48.852;9.152;2023-02-28T08:59:11;15.40;;;3.78;;
65971;SDS011;52726;48.852;9.152;2023-02-28T09:01:37;8.45;;;4.13;;
65971;SDS011;52726;48.852;9.152;2023-02-28T09:04:03;6.57;;;2.78;;
65971;SDS011;52726;48.852;9.152;2023-02-28T09:06:28;4.63;;;3.25;;
65971;SDS011;52726;48.852;9.152;2023-02-28T09:08:56;5.45;;;3.75;;
65971;SDS011;52726;48.852;9.152;2023-02-28T09:11:23;4.60;;;3.22;;
65971;SDS011;52726;48.852;9.152;2023-02-28T09:13:48;10.85;;;3.67;;
65971;SDS011;52726;48.852;9.152;2023-02-28T09:16:14;8.93;;;3.58;;
65971;SDS011;52726;48.852;9.152;2023-02-28T09:18:41;9.15;;;3.88;;
65971;SDS011;52726;48.852;9.152;2023-02-28T09:21:07;5.80;;;3.58;;
65971;SDS011;52726;48.852;9.152;2023-02-28T09:23:35;5.00;;;3.03;;
65971;SDS011;52726;48.852;9.152;2023-02-28T09:26:03;3.20;;;2.90;;
65971;SDS011;52726;48.852;9.152;2023-02-28T09:28:29;4.10;;;2.78;;
65971;SDS011;52726;48.852;9.152;2023-02-28T09:30:54;3.10;;;2.15;;
65971;SDS011;52726;48.852;9.152;2023-02-28T09:33:21;9.82;;;4.30;;
65971;SDS011;52726;48.852;9.152;2023-02-28T09:35:47;7.82;;;3.25;;
65971;SDS011;52726;48.852;9.152;2023-02-28T09:38:13;8.10;;;4.28;;
65971;SDS011;52726;48.852;9.152;2023-02-28T09:43:17;3.47;;;2.85;;
65971;SDS011;52726;48.852;9.152;2023-02-28T09:45:53;4.78;;;3.10;;
65971;SDS011;52726;48.852;9.152;2023-02-28T09:48:27;8.25;;;4.07;;
65971;SDS011;52726;48.852;9.152;2023-02-28T09:51:05;5.90;;;3.40;;
65971;SDS011;52726;48.852;9.152;2023-02-28T09:53:39;5.20;;;3.67;;
65971;SDS011;52726;48.852;9.152;2023-02-28T10:01:06;4.05;;;2.58;;
65971;SDS011;52726;48.852;9.152;2023-02-28T10:06:30;6.55;;;3.47;;
65971;SDS011;52726;48.852;9.152;2023-02-28T10:09:30;5.90;;;4.05;;
65971;SDS011;52726;48.852;9.152;2023-02-28T10:12:02;6.13;;;2.45;;
65971;SDS011;52726;48.852;9.152;2023-02-28T10:15:07;6.32;;;3.42;;
65971;SDS011;52726;48.852;9.152;2023-02-28T10:20:07;4.18;;;3.13;;
65971;SDS011;52726;48.852;9.152;2023-02-28T10:22:49;5.03;;;3.03;;
65971;SDS011;52726;48.852;9.152;2023-02-28T10:25:27;4.57;;;2.95;;
65971;SDS011;52726;48.852;9.152;2023-02-28T10:28:38;5.85;;;3.33;;
65971;SDS011;52726;48.852;9.152;2023-02-28T10:31:04;4.00;;;2.88;;
65971;SDS011;52726;48.852;9.152;2023-02-28T10:33:30;3.28;;;2.22;;
65971;SDS011;52726;48.852;9.152;2023-02-28T10:36:01;3.00;;;2.42;;
65971;SDS011;52726;48.852;9.152;2023-02-28T10:38:31;8.20;;;4.55;;
65971;SDS011;52726;48.852;9.152;2023-02-28T10:41:26;6.57;;;4.00;;
65971;SDS011;52726;48.852;9.152;2023-02-28T10:44:12;3.38;;;2.05;;
65971;SDS011;52726;48.852;9.152;2023-02-28T10:46:41;4.45;;;2.83;;
65971;SDS011;52726;48.852;9.152;2023-02-28T10:49:12;7.63;;;4.03;;
65971;SDS011;52726;48.852;9.152;2023-02-28T10:51:49;11.50;;;4.03;;
65971;SDS011;52726;48.852;9.152;2023-02-28T10:55:15;4.68;;;2.53;;
65971;SDS011;52726;48.852;9.152;2023-02-28T10:57:46;8.20;;;4.32;;
65971;SDS011;52726;48.852;9.152;2023-02-28T11:00:16;6.32;;;3.85;;
65971;SDS011;52726;48.852;9.152;2023-02-28T11:02:47;7.60;;;5.20;;
65971;SDS011;52726;48.852;9.152;2023-02-28T11:05:35;8.52;;;4.05;;
65971;SDS011;52726;48.852;9.152;2023-02-28T11:10:47;10.05;;;3.75;;
65971;SDS011;52726;48.852;9.152;2023-02-28T11:13:20;6.05;;;3.33;;
65971;SDS011;52726;48.852;9.152;2023-02-28T11:15:54;8.00;;;3.97;;
65971;SDS011;52726;48.852;9.152;2023-02-28T11:20:48;5.68;;;3.95;;
65971;SDS011;52726;48.852;9.152;2023-02-28T11:23:15;9.82;;;5.15;;
65971;SDS011;52726;48.852;9.152;2023-02-28T11:25:46;15.98;;;4.05;;
65971;SDS011;52726;48.852;9.152;2023-02-28T11:28:24;6.65;;;4.57;;
65971;SDS011;52726;48.852;9.152;2023-02-28T11:31:14;7.82;;;4.78;;
65971;SDS011;52726;48.852;9.152;2023-02-28T11:33:51;6.78;;;4.20;;
65971;SDS011;52726;48.852;9.152;2023-02-28T11:36:20;6.22;;;4.13;;
65971;SDS011;52726;48.852;9.152;2023-02-28T11:44:23;7.82;;;4.50;;
65971;SDS011;52726;48.852;9.152;2023-02-28T11:53:17;4.78;;;3.67;;
65971;SDS011;52726;48.852;9.152;2023-02-28T11:56:07;5.57;;;4.22;;
65971;SDS011;52726;48.852;9.152;2023-02-28T12:10:30;7.82;;;4.70;;
65971;SDS011;52726;48.852;9.152;2023-02-28T12:16:45;9.13;;;4.70;;
65971;SDS011;52726;48.852;9.152;2023-02-28T12:22:12;8.75;;;3.78;;
65971;SDS011;52726;48.852;9.152;2023-02-28T12:27:43;8.48;;;4.40;;
65971;SDS011;52726;48.852;9.152;2023-02-28T12:30:21;8.07;;;4.28;;
65971;SDS011;52726;48.852;9.152;2023-02-28T12:36:10;6.95;;;3.80;;
65971;SDS011;52726;48.852;9.152;2023-02-28T12:39:08;5.97;;;3.55;;
65971;SDS011;52726;48.852;9.152;2023-02-28T12:41:47;5.78;;;3.45;;
65971;SDS011;52726;48.852;9.152;2023-02-28T12:44:17;7.28;;;4.28;;
65971;SDS011;52726;48.852;9.152;2023-02-28T12:47:21;6.22;;;3.83;;
65971;SDS011;52726;48.852;9.152;2023-02-28T12:50:05;8.23;;;4.75;;
65971;SDS011;52726;48.852;9.152;2023-02-28T12:55:39;10.18;;;4.78;;
65971;SDS011;52726;48.852;9.152;2023-02-28T12:58:12;9.48;;;4.50;;
65971;SDS011;52726;48.852;9.152;2023-02-28T13:09:58;5.65;;;3.20;;
65971;SDS011;52726;48.852;9.152;2023-02-28T13:12:25;5.53;;;3.50;;
65971;SDS011;52726;48.852;9.152;2023-02-28T13:15:00;7.70;;;4.50;;
65971;SDS011;52726;48.852;9.152;2023-02-28T13:17:44;9.07;;;4.38;;
65971;SDS011;52726;48.852;9.152;2023-02-28T13:20:32;4.15;;;2.78;;
65971;SDS011;52726;48.852;9.152;2023-02-28T13:23:00;7.30;;;4.57;;
65971;SDS011;52726;48.852;9.152;2023-02-28T13:27:59;10.63;;;4.63;;
65971;SDS011;52726;48.852;9.152;2023-02-28T13:36:46;7.18;;;4.10;;
65971;SDS011;52726;48.852;9.152;2023-02-28T13:39:45;5.05;;;3.33;;
65971;SDS011;52726;48.852;9.152;2023-02-28T13:42:22;7.32;;;3.97;;
65971;SDS011;52726;48.852;9.152;2023-02-28T13:47:41;8.82;;;3.75;;
65971;SDS011;52726;48.852;9.152;2023-02-28T13:50:31;6.40;;;4.20;;
65971;SDS011;52726;48.852;9.152;2023-02-28T13:53:55;7.40;;;4.28;;
65971;SDS011;52726;48.852;9.152;2023-02-28T14:06:57;6.10;;;3.70;;
65971;SDS011;52726;48.852;9.152;2023-02-28T14:10:08;4.88;;;3.53;;
65971;SDS011;52726;48.852;9.152;2023-02-28T14:13:42;12.52;;;4.50;;
65971;SDS011;52726;48.852;9.152;2023-02-28T14:17:15;5.25;;;3.60;;
65971;SDS011;52726;48.852;9.152;2023-02-28T14:32:10;7.60;;;3.72;;
65971;SDS011;52726;48.852;9.152;2023-02-28T14:35:05;9.35;;;4.25;;
65971;SDS011;52726;48.852;9.152;2023-02-28T14:37:45;7.75;;;4.22;;
65971;SDS011;52726;48.852;9.152;2023-02-28T14:40:12;7.57;;;4.65;;
65971;SDS011;52726;48.852;9.152;2023-02-28T14:42:45;6.30;;;4.40;;
65971;SDS011;52726;48.852;9.152;2023-02-28T14:45:19;8.80;;;4.43;;
65971;SDS011;52726;48.852;9.152;2023-02-28T14:47:45;10.10;;;4.63;;
65971;SDS011;52726;48.852;9.152;2023-02-28T14:50:18;8.32;;;4.13;;
65971;SDS011;52726;48.852;9.152;2023-02-28T14:52:50;7.07;;;3.03;;
65971;SDS011;52726;48.852;9.152;2023-02-28T14:55:18;4.13;;;3.30;;
65971;SDS011;52726;48.852;9.152;2023-02-28T14:57:51;10.35;;;5.03;;
65971;SDS011;52726;48.852;9.152;2023-02-28T15:00:28;8.85;;;4.90;;
65971;SDS011;52726;48.852;9.152;2023-02-28T15:02:56;8.85;;;4.68;;
65971;SDS011;52726;48.852;9.152;2023-02-28T15:05:29;6.40;;;4.38;;
65971;SDS011;52726;48.852;9.152;2023-02-28T15:10:44;7.68;;;4.75;;
65971;SDS011;52726;48.852;9.152;2023-02-28T15:13:22;9.85;;;4.05;;
65971;SDS011;52726;48.852;9.152;2023-02-28T15:15:55;5.30;;;3.90;;
65971;SDS011;52726;48.852;9.152;2023-02-28T15:18:28;8.05;;;4.93;;
65971;SDS011;52726;48.852;9.152;2023-02-28T15:20:58;9.07;;;4.32;;
65971;SDS011;52726;48.852;9.152;2023-02-28T15:23:28;6.60;;;3.03;;
65971;SDS011;52726;48.852;9.152;2023-02-28T15:25:55;13.45;;;4.85;;
65971;SDS011;52726;48.852;9.152;2023-02-28T15:28:21;7.05;;;4.53;;
65971;SDS011;52726;48.852;9.152;2023-02-28T15:31:18;14.90;;;5.82;;
65971;SDS011;52726;48.852;9.152;2023-02-28T15:34:05;9.60;;;4.80;;
65971;SDS011;52726;48.852;9.152;2023-02-28T15:36:33;10.07;;;4.38;;
65971;SDS011;52726;48.852;9.152;2023-02-28T15:39:02;6.80;;;3.92;;
65971;SDS011;52726;48.852;9.152;2023-02-28T15:41:42;12.55;;;4.63;;
65971;SDS011;52726;48.852;9.152;2023-02-28T15:47:03;7.50;;;3.35;;
65971;SDS011;52726;48.852;9.152;2023-02-28T15:49:51;6.80;;;3.90;;
65971;SDS011;52726;48.852;9.152;2023-02-28T15:52:19;10.68;;;4.78;;
65971;SDS011;52726;48.852;9.152;2023-02-28T15:54:53;7.97;;;5.07;;
65971;SDS011;52726;48.852;9.152;2023-02-28T15:57:20;5.78;;;4.40;;
65971;SDS011;52726;48.852;9.152;2023-02-28T15:59:55;5.63;;;3.20;;
65971;SDS011;52726;48.852;9.152;2023-02-28T16:02:34;7.97;;;3.90;;
65971;SDS011;52726;48.852;9.152;2023-02-28T16:07:35;10.88;;;4.70;;
65971;SDS011;52726;48.852;9.152;2023-02-28T16:10:06;6.60;;;4.38;;
65971;SDS011;52726;48.852;9.152;2023-02-28T16:12:35;11.20;;;4.57;;
65971;SDS011;52726;48.852;9.152;2023-02-28T16:15:03;6.22;;;4.10;;
65971;SDS011;52726;48.852;9.152;2023-02-28T16:17:37;6.35;;;4.47;;
65971;SDS011;52726;48.852;9.152;2023-02-28T16:20:14;9.20;;;5.45;;
65971;SDS011;52726;48.852;9.152;2023-02-28T16:22:41;7.47;;;4.10;;
65971;SDS011;52726;48.852;9.152;2023-02-28T16:25:10;7.10;;;4.38;;
65971;SDS011;52726;48.852;9.152;2023-02-28T16:27:40;7.63;;;4.25;;
65971;SDS011;52726;48.852;9.152;2023-02-28T16:30:07;5.30;;;3.55;;
65971;SDS011;52726;48.852;9.152;2023-02-28T16:32:35;7.85;;;4.90;;
65971;SDS011;52726;48.852;9.152;2023-02-28T16:35:01;9.25;;;4.70;;
65971;SDS011;52726;48.852;9.152;2023-02-28T16:37:27;7.00;;;4.05;;
65971;SDS011;52726;48.852;9.152;2023-02-28T16:39:53;9.23;;;5.25;;
65971;SDS011;52726;48.852;9.152;2023-02-28T16:42:20;11.32;;;4.97;;
65971;SDS011;52726;48.852;9.152;2023-02-28T16:44:50;10.90;;;5.57;;
65971;SDS011;52726;48.852;9.152;2023-02-28T16:47:17;10.43;;;6.03;;
65971;SDS011;52726;48.852;9.152;2023-02-28T16:49:42;11.00;;;5.47;;
65971;SDS011;52726;48.852;9.152;2023-02-28T16:52:08;8.50;;;4.95;;
65971;SDS011;52726;48.852;9.152;2023-02-28T16:54:34;8.65;;;4.82;;
65971;SDS011;52726;48.852;9.152;2023-02-28T16:57:00;10.48;;;5.07;;
65971;SDS011;52726;48.852;9.152;2023-02-28T16:59:26;13.02;;;5.90;;
65971;SDS011;52726;48.852;9.152;2023-02-28T17:01:52;10.75;;;5.30;;
65971;SDS011;52726;48.852;9.152;2023-02-28T17:04:18;8.90;;;5.15;;
65971;SDS011;52726;48.852;9.152;2023-02-28T17:06:44;10.40;;;4.95;;
65971;SDS011;52726;48.852;9.152;2023-02-28T17:09:14;10.30;;;5.32;;
65971;SDS011;52726;48.852;9.152;2023-02-28T17:11:43;9.43;;;5.88;;
65971;SDS011;52726;48.852;9.152;2023-02-28T17:14:12;11.63;;;4.97;;
65971;SDS011;52726;48.852;9.152;2023-02-28T17:16:38;11.10;;;5.95;;
65971;SDS011;52726;48.852;9.152;2023-02-28T17:19:46;9.85;;;5.80;;
65971;SDS011;52726;48.852;9.152;2023-02-28T17:22:15;8.88;;;5.05;;
65971;SDS011;52726;48.852;9.152;2023-02-28T17:24:40;7.78;;;5.28;;
65971;SDS011;52726;48.852;9.152;2023-02-28T17:27:15;8.93;;;5.30;;
65971;SDS011;52726;48.852;9.152;2023-02-28T17:29:40;8.93;;;5.43;;
65971;SDS011;52726;48.852;9.152;2023-02-28T17:32:06;9.70;;;4.57;;
65971;SDS011;52726;48.852;9.152;2023-02-28T17:34:31;10.07;;;5.88;;
65971;SDS011;52726;48.852;9.152;2023-02-28T17:36:57;8.65;;;5.05;;
65971;SDS011;52726;48.852;9.152;2023-02-28T17:39:22;7.50;;;4.93;;
65971;SDS011;52726;48.852;9.152;2023-02-28T17:41:51;11.07;;;4.93;;
65971;SDS011;52726;48.852;9.152;2023-02-28T17:44:17;10.98;;;6.07;;
65971;SDS011;52726;48.852;9.152;2023-02-28T17:46:43;7.80;;;4.88;;
65971;SDS011;52726;48.852;9.152;2023-02-28T17:49:10;10.57;;;5.28;;
65971;SDS011;52726;48.852;9.152;2023-02-28T17:51:35;11.95;;;5.63;;